Time;durP1;ratioP1;P1;durP2;ratioP2;P2;SDS_P1;SDS_P2;PMS_P1;PMS_P2;Temp;Humidity;BMP_temperature;BMP_pressure;BME280_temperature;BME280_humidity;BME280_pressure;Samples;Min_cycle;Max_cycle;Signal;HPM_P1;HPM_P2
2022/01/27 00:00:43;;;;;;;0.30;0.20;;;0.60;99.90;;;;;;5067749;28;20666;-88
2022/01/27 00:03:21;;;;;;;0.30;0.10;;;0.60;99.90;;;;;;5066527;28;20278;-88
2022/01/27 00:05:52;;;;;;;0.30;0.10;;;0.60;99.90;;;;;;5076807;28;20308;-88
2022/01/27 00:08:24;;;;;;;0.30;0.10;;;0.60;99.90;;;;;;5096940;28;20192;-87
2022/01/27 00:10:54;;;;;;;0.30;0.10;;;0.60;99.90;;;;;;5092008;28;20223;-86
2022/01/27 00:13:27;;;;;;;0.30;0.20;;;0.70;99.90;;;;;;5078487;28;20202;-90
2022/01/27 00:16:10;;;;;;;0.38;0.22;;;0.70;99.90;;;;;;5061132;28;20331;-88
2022/01/27 00:18:39;;;;;;;0.30;0.10;;;0.70;99.90;;;;;;5053322;28;20297;-88
2022/01/27 00:21:06;;;;;;;0.30;0.10;;;0.70;99.90;;;;;;5052269;28;20197;-88
2022/01/27 00:23:33;;;;;;;0.30;0.20;;;0.70;99.90;;;;;;5055394;28;20197;-89
2022/01/27 00:26:01;;;;;;;0.30;0.20;;;0.70;99.90;;;;;;5058558;28;20222;-88
2022/01/27 00:28:28;;;;;;;0.30;0.10;;;0.70;99.90;;;;;;5069509;28;20808;-87
2022/01/27 00:30:56;;;;;;;1.00;1.00;;;0.70;99.90;;;;;;5061126;28;21017;-90
2022/01/27 00:33:23;;;;;;;1.10;1.00;;;0.70;99.90;;;;;;5070391;28;20197;-88
2022/01/27 00:35:51;;;;;;;0.30;0.10;;;0.70;99.90;;;;;;5069226;28;20204;-91
2022/01/27 00:38:18;;;;;;;0.30;0.10;;;0.80;99.90;;;;;;5068673;28;20207;-87
2022/01/27 00:40:45;;;;;;;0.40;0.40;;;0.80;99.90;;;;;;5065046;28;20212;-88
2022/01/27 00:43:12;;;;;;;0.30;0.10;;;0.70;99.90;;;;;;5072026;28;20296;-88
2022/01/27 00:45:39;;;;;;;0.30;0.10;;;0.70;99.90;;;;;;5065696;28;20220;-88
2022/01/27 00:48:07;;;;;;;1.20;1.20;;;0.70;99.90;;;;;;5068981;28;20667;-87
2022/01/27 00:50:36;;;;;;;0.55;0.55;;;0.70;99.90;;;;;;5069943;28;20240;-91
2022/01/27 00:53:18;;;;;;;0.30;0.20;;;0.80;99.90;;;;;;5066377;28;20289;-90
2022/01/27 00:55:45;;;;;;;0.30;0.20;;;0.70;99.90;;;;;;5069126;28;20286;-88
2022/01/27 00:58:26;;;;;;;0.40;0.20;;;0.70;99.90;;;;;;5066472;28;20200;-89
2022/01/27 01:00:57;;;;;;;1.65;1.23;;;0.70;99.90;;;;;;5062398;28;20227;-88
2022/01/27 01:03:30;;;;;;;0.30;0.20;;;0.80;99.90;;;;;;5066038;28;20211;-90
2022/01/27 01:06:15;;;;;;;1.15;0.73;;;0.80;99.90;;;;;;5065292;28;20280;-90
2022/01/27 01:17:01;;;;;;;0.30;0.10;;;0.80;99.90;;;;;;5054420;28;20210;-90
2022/01/27 01:19:40;;;;;;;0.30;0.10;;;0.70;99.90;;;;;;5071524;28;20186;-88
2022/01/27 01:29:25;;;;;;;0.65;0.57;;;0.70;99.90;;;;;;5067561;28;20217;-89
2022/01/27 01:30:47;;;;;;;0.82;0.38;;;0.80;99.90;;;;;;5039757;28;20203;-87
2022/01/27 01:33:21;;;;;;;1.08;1.00;;;0.80;99.90;;;;;;5071634;28;20216;-88
2022/01/27 01:35:49;;;;;;;0.30;0.10;;;0.80;99.90;;;;;;5063385;28;20205;-91
2022/01/27 01:38:19;;;;;;;1.20;1.05;;;0.80;99.90;;;;;;5069407;28;20212;-88
2022/01/27 01:40:50;;;;;;;0.30;0.10;;;0.80;99.90;;;;;;5080364;28;20192;-88
2022/01/27 01:43:18;;;;;;;0.38;0.28;;;0.80;99.90;;;;;;5087429;28;20184;-87
2022/01/27 01:45:46;;;;;;;1.15;0.47;;;0.70;99.90;;;;;;5084462;28;20253;-88
2022/01/27 01:48:15;;;;;;;0.30;0.10;;;0.80;99.90;;;;;;5083185;28;20534;-87
2022/01/27 01:50:43;;;;;;;1.70;1.60;;;0.70;99.90;;;;;;5058815;28;20526;-88
2022/01/27 01:53:11;;;;;;;0.30;0.10;;;0.70;99.90;;;;;;5052558;28;20205;-87
2022/01/27 01:55:38;;;;;;;0.30;0.17;;;0.80;99.90;;;;;;5053550;28;20926;-87
2022/01/27 01:58:07;;;;;;;0.30;0.10;;;0.70;99.90;;;;;;5049063;28;20204;-88
2022/01/27 02:00:34;;;;;;;0.30;0.20;;;0.70;99.90;;;;;;5052938;28;20683;-88
2022/01/27 02:03:01;;;;;;;0.30;0.10;;;0.70;99.90;;;;;;5056346;28;20254;-90
2022/01/27 02:05:33;;;;;;;0.30;0.10;;;0.80;99.90;;;;;;5065601;28;20277;-88
2022/01/27 02:08:28;;;;;;;0.30;0.10;;;0.70;99.90;;;;;;5067281;28;20200;-87
2022/01/27 02:19:14;;;;;;;0.30;0.20;;;0.70;99.90;;;;;;5063521;28;20250;-87
2022/01/27 02:21:50;;;;;;;0.30;0.10;;;0.70;99.90;;;;;;5070337;28;20274;-88
2022/01/27 02:24:19;;;;;;;0.30;0.10;;;0.70;99.90;;;;;;5067211;28;20302;-89
2022/01/27 02:26:48;;;;;;;0.43;0.30;;;0.70;99.90;;;;;;5066343;28;20683;-88
2022/01/27 02:29:15;;;;;;;3.80;0.95;;;0.70;99.90;;;;;;5069860;28;20222;-88
2022/01/27 02:31:42;;;;;;;0.30;0.10;;;0.70;99.90;;;;;;5069760;28;20659;-89
2022/01/27 02:34:09;;;;;;;1.58;1.38;;;0.70;99.90;;;;;;5065303;28;20255;-88
2022/01/27 02:36:37;;;;;;;0.30;0.10;;;0.70;99.90;;;;;;5069823;28;20208;-89
2022/01/27 02:39:06;;;;;;;0.40;0.40;;;0.70;99.90;;;;;;5067168;28;20440;-88
2022/01/27 02:41:46;;;;;;;0.30;0.10;;;0.70;99.90;;;;;;5070037;28;20200;-87
2022/01/27 02:44:21;;;;;;;0.30;0.10;;;0.70;99.90;;;;;;5064779;28;20243;-87
2022/01/27 02:46:51;;;;;;;0.30;0.10;;;0.70;99.90;;;;;;5062921;28;20255;-87
2022/01/27 02:49:18;;;;;;;0.30;0.10;;;0.70;99.90;;;;;;5068941;28;20204;-88
2022/01/27 02:51:45;;;;;;;0.40;0.27;;;0.60;99.90;;;;;;5067241;28;20555;-87
2022/01/27 02:54:14;;;;;;;0.40;0.20;;;0.70;99.90;;;;;;5061486;28;21045;-87
2022/01/27 02:56:45;;;;;;;0.30;0.10;;;0.70;99.90;;;;;;5063944;28;20500;-88
2022/01/27 02:59:12;;;;;;;1.48;1.25;;;0.70;99.90;;;;;;5065394;28;20228;-87
2022/01/27 03:01:40;;;;;;;0.30;0.20;;;0.70;99.90;;;;;;5066730;28;20252;-87
2022/01/27 03:04:07;;;;;;;0.30;0.10;;;0.70;99.90;;;;;;5063979;28;20603;-88
2022/01/27 03:06:34;;;;;;;0.40;0.40;;;0.60;99.90;;;;;;5066273;28;20709;-87
2022/01/27 03:09:02;;;;;;;1.48;1.48;;;0.70;99.90;;;;;;5066418;28;20244;-87
2022/01/27 03:11:39;;;;;;;0.30;0.10;;;0.60;99.90;;;;;;5069612;28;20257;-86
2022/01/27 03:14:07;;;;;;;0.30;0.15;;;0.60;99.90;;;;;;5060390;28;20234;-88
2022/01/27 03:16:35;;;;;;;0.30;0.10;;;0.70;99.90;;;;;;5074595;28;20205;-87
2022/01/27 03:19:02;;;;;;;0.30;0.17;;;0.70;99.90;;;;;;5088310;28;20190;-87
2022/01/27 03:21:29;;;;;;;3.65;1.30;;;0.70;99.90;;;;;;5085812;28;20224;-86
2022/01/27 03:23:56;;;;;;;0.30;0.20;;;0.70;99.90;;;;;;5081422;28;20650;-88
2022/01/27 03:26:24;;;;;;;0.30;0.20;;;0.70;99.90;;;;;;5056609;28;20217;-88
2022/01/27 03:28:53;;;;;;;1.13;1.08;;;0.60;99.90;;;;;;5050202;28;20228;-88
2022/01/27 03:31:20;;;;;;;0.30;0.10;;;0.70;99.90;;;;;;5049292;28;20243;-88
2022/01/27 03:33:48;;;;;;;0.60;0.50;;;0.60;99.90;;;;;;5058066;28;20202;-86
2022/01/27 03:36:15;;;;;;;0.30;0.10;;;0.60;99.90;;;;;;5066500;28;20257;-88
2022/01/27 03:38:43;;;;;;;0.30;0.10;;;0.60;99.90;;;;;;5060646;28;20192;-88
2022/01/27 03:41:11;;;;;;;0.30;0.10;;;0.60;99.90;;;;;;5068788;28;20694;-89
2022/01/27 03:43:40;;;;;;;0.73;0.73;;;0.60;99.90;;;;;;5064918;28;20277;-86
2022/01/27 03:46:08;;;;;;;0.30;0.10;;;0.60;99.90;;;;;;5061521;28;20219;-88
2022/01/27 03:48:35;;;;;;;0.30;0.10;;;0.60;99.90;;;;;;5064934;28;20598;-89
2022/01/27 03:51:03;;;;;;;0.30;0.20;;;0.70;99.90;;;;;;5064206;28;20206;-87
2022/01/27 03:53:30;;;;;;;10.55;1.60;;;0.70;99.90;;;;;;5067092;28;20691;-87
2022/01/27 03:55:57;;;;;;;2.00;0.57;;;0.60;99.90;;;;;;5066330;28;20206;-88
2022/01/27 03:58:24;;;;;;;0.30;0.20;;;0.60;99.90;;;;;;5065611;28;20201;-87
2022/01/27 04:00:51;;;;;;;1.20;1.10;;;0.60;99.90;;;;;;5069474;28;20237;-87
2022/01/27 04:03:22;;;;;;;0.70;0.52;;;0.60;99.90;;;;;;5061388;28;20267;-88
2022/01/27 04:05:54;;;;;;;2.53;1.65;;;0.60;99.90;;;;;;5066509;28;20214;-88
2022/01/27 04:08:22;;;;;;;0.30;0.10;;;0.60;99.90;;;;;;5058451;28;20214;-89
2022/01/27 04:10:49;;;;;;;1.30;1.30;;;0.60;99.90;;;;;;5068097;28;20196;-88
2022/01/27 04:13:17;;;;;;;0.30;0.10;;;0.60;99.90;;;;;;5070420;28;20230;-88
2022/01/27 04:15:45;;;;;;;0.30;0.20;;;0.60;99.90;;;;;;5068430;28;20258;-88
2022/01/27 04:18:14;;;;;;;1.20;1.20;;;0.60;99.90;;;;;;5073401;28;20379;-88
2022/01/27 04:20:43;;;;;;;2.45;0.55;;;0.70;99.90;;;;;;5064395;28;20642;-89
2022/01/27 04:23:10;;;;;;;0.30;0.10;;;0.60;99.90;;;;;;5071137;28;20224;-87
2022/01/27 04:25:39;;;;;;;0.30;0.20;;;0.60;99.90;;;;;;5065551;28;20822;-87
2022/01/27 04:28:10;;;;;;;0.30;0.20;;;0.60;99.90;;;;;;5075758;28;20195;-90
2022/01/27 04:30:37;;;;;;;1.95;1.38;;;0.60;99.90;;;;;;5097026;28;20223;-88
2022/01/27 04:33:06;;;;;;;0.30;0.10;;;0.60;99.90;;;;;;5094350;28;20184;-88
2022/01/27 04:35:36;;;;;;;0.30;0.10;;;0.60;99.90;;;;;;5092142;28;20200;-88
2022/01/27 04:38:19;;;;;;;0.30;0.10;;;0.50;99.90;;;;;;5095502;28;20196;-89
2022/01/27 04:40:55;;;;;;;0.30;0.10;;;0.50;99.90;;;;;;5095034;28;20190;-88
2022/01/27 04:43:29;;;;;;;0.35;0.22;;;0.50;99.90;;;;;;5086110;28;20259;-88
2022/01/27 04:46:05;;;;;;;0.55;0.55;;;0.60;99.90;;;;;;5086077;28;20220;-87
2022/01/27 04:48:37;;;;;;;0.82;0.82;;;0.50;99.90;;;;;;5075851;28;20232;-87
2022/01/27 04:51:07;;;;;;;0.70;0.50;;;0.50;99.90;;;;;;5081690;28;20192;-88
2022/01/27 04:53:44;;;;;;;0.65;0.65;;;0.50;99.90;;;;;;5088460;28;20200;-89
2022/01/27 04:56:13;;;;;;;0.30;0.10;;;0.50;99.90;;;;;;5080094;28;20223;-87
2022/01/27 04:58:43;;;;;;;1.88;0.98;;;0.50;99.90;;;;;;5070304;28;20201;-86
2022/01/27 05:01:10;;;;;;;0.77;0.70;;;0.50;99.90;;;;;;5078880;28;20194;-88
2022/01/27 05:03:42;;;;;;;0.30;0.10;;;0.50;99.90;;;;;;5062882;28;20664;-87
2022/01/27 05:06:09;;;;;;;0.30;0.10;;;0.50;99.90;;;;;;5050597;28;20253;-89
2022/01/27 05:08:38;;;;;;;0.30;0.20;;;0.50;99.90;;;;;;5053564;28;20521;-87
2022/01/27 05:11:11;;;;;;;0.30;0.15;;;0.50;99.90;;;;;;5047770;28;20201;-88
2022/01/27 05:13:42;;;;;;;0.30;0.10;;;0.40;99.90;;;;;;5054794;28;20214;-87
2022/01/27 05:16:09;;;;;;;0.30;0.10;;;0.40;99.90;;;;;;5055734;28;20220;-88
2022/01/27 05:18:36;;;;;;;2.90;0.52;;;0.50;99.90;;;;;;5058555;28;20205;-87
2022/01/27 05:21:04;;;;;;;0.30;0.10;;;0.40;99.90;;;;;;5057214;28;20574;-87
2022/01/27 05:23:32;;;;;;;1.50;0.60;;;0.40;99.90;;;;;;5052309;28;20242;-88
2022/01/27 05:26:00;;;;;;;0.60;0.45;;;0.30;99.90;;;;;;5055271;28;20204;-90
2022/01/27 05:28:27;;;;;;;0.30;0.20;;;0.30;99.90;;;;;;5050815;28;20298;-89
2022/01/27 05:30:54;;;;;;;0.30;0.10;;;0.30;99.90;;;;;;5053736;28;20533;-89
2022/01/27 05:33:21;;;;;;;0.30;0.20;;;0.30;99.90;;;;;;5051743;28;20214;-87
2022/01/27 05:35:48;;;;;;;2.05;1.95;;;0.20;99.90;;;;;;5060064;28;20676;-89
2022/01/27 05:38:16;;;;;;;0.30;0.10;;;0.30;99.90;;;;;;5056729;28;20202;-89
2022/01/27 05:40:44;;;;;;;0.45;0.32;;;0.30;99.90;;;;;;5054594;28;20499;-90
2022/01/27 05:43:13;;;;;;;0.40;0.10;;;0.30;99.90;;;;;;5055755;28;20208;-88
2022/01/27 05:45:41;;;;;;;0.30;0.10;;;0.40;99.90;;;;;;5052768;28;20874;-90
2022/01/27 05:48:08;;;;;;;0.30;0.10;;;0.40;99.90;;;;;;5062972;28;20225;-88
2022/01/27 05:50:35;;;;;;;2.20;2.08;;;0.40;99.90;;;;;;5051889;28;20200;-86
2022/01/27 05:53:03;;;;;;;1.38;1.27;;;0.40;99.90;;;;;;5062590;28;20208;-87
2022/01/27 05:55:30;;;;;;;0.30;0.10;;;0.40;99.90;;;;;;5062774;28;20200;-89
2022/01/27 05:57:57;;;;;;;0.30;0.30;;;0.40;99.90;;;;;;5060547;28;20649;-91
2022/01/27 06:00:27;;;;;;;1.55;1.45;;;0.40;99.90;;;;;;5058685;28;20290;-88
2022/01/27 06:02:54;;;;;;;0.30;0.10;;;0.30;99.90;;;;;;5055972;28;20284;-89
2022/01/27 06:05:21;;;;;;;1.95;0.70;;;0.30;99.90;;;;;;5045230;28;20196;-88
2022/01/27 06:07:48;;;;;;;1.17;1.17;;;0.40;99.90;;;;;;5048449;28;20248;-88
2022/01/27 06:10:15;;;;;;;0.30;0.30;;;0.30;99.90;;;;;;5050926;28;20197;-90
2022/01/27 06:12:47;;;;;;;0.88;0.73;;;0.30;99.90;;;;;;5050662;28;20710;-89
2022/01/27 06:15:14;;;;;;;0.30;0.10;;;0.30;99.90;;;;;;5049253;28;20206;-89
2022/01/27 06:17:43;;;;;;;0.30;0.10;;;0.30;99.90;;;;;;5055486;28;20205;-88
2022/01/27 06:20:10;;;;;;;0.60;0.60;;;0.20;99.90;;;;;;5041420;28;20268;-88
2022/01/27 06:22:38;;;;;;;1.42;0.65;;;0.20;99.90;;;;;;5044750;28;20451;-90
2022/01/27 06:25:06;;;;;;;1.58;0.90;;;0.20;99.90;;;;;;5050509;28;20200;-88
2022/01/27 06:27:33;;;;;;;0.30;0.10;;;0.20;99.90;;;;;;5066695;28;20217;-89
2022/01/27 06:30:00;;;;;;;1.15;0.82;;;0.20;99.90;;;;;;5059324;28;20250;-88
2022/01/27 06:32:27;;;;;;;0.30;0.10;;;0.10;99.90;;;;;;5063114;28;20200;-88
2022/01/27 06:34:55;;;;;;;0.30;0.10;;;0.00;99.90;;;;;;5057665;28;20274;-89
2022/01/27 06:37:22;;;;;;;0.30;0.10;;;0.00;99.90;;;;;;5057108;28;20602;-90
2022/01/27 06:39:49;;;;;;;0.60;0.57;;;-0.10;99.90;;;;;;5049336;28;20843;-89
2022/01/27 06:42:16;;;;;;;0.30;0.10;;;-0.20;99.90;;;;;;5049992;28;20200;-88
2022/01/27 06:44:43;;;;;;;0.30;0.20;;;-0.20;99.90;;;;;;5042776;28;20285;-89
2022/01/27 06:47:10;;;;;;;1.27;1.27;;;-0.20;99.90;;;;;;5061325;28;20216;-88
2022/01/27 06:49:37;;;;;;;0.30;0.20;;;-0.20;99.90;;;;;;5067703;28;20200;-89
2022/01/27 06:52:07;;;;;;;0.30;0.10;;;-0.30;99.90;;;;;;5042341;28;20227;-90
2022/01/27 06:54:34;;;;;;;1.73;1.13;;;-0.30;99.90;;;;;;5044538;28;20208;-90
2022/01/27 06:57:02;;;;;;;0.30;0.10;;;-0.40;99.90;;;;;;5040652;28;20209;-88
2022/01/27 06:59:29;;;;;;;0.30;0.20;;;-0.40;99.90;;;;;;5051048;28;20238;-89
2022/01/27 07:01:56;;;;;;;0.30;0.20;;;-0.40;99.90;;;;;;5036803;28;20197;-89
2022/01/27 07:04:23;;;;;;;1.63;1.55;;;-0.40;99.90;;;;;;5030511;28;20216;-86
2022/01/27 07:06:52;;;;;;;0.85;0.50;;;-0.40;99.90;;;;;;5032299;28;20227;-86
2022/01/27 07:09:20;;;;;;;0.52;0.52;;;-0.40;99.90;;;;;;5055015;28;20282;-88
2022/01/27 07:11:47;;;;;;;0.47;0.47;;;-0.40;99.90;;;;;;5035082;28;20459;-87
2022/01/27 07:14:14;;;;;;;1.15;1.15;;;-0.40;99.90;;;;;;5029723;28;20243;-89
2022/01/27 07:16:42;;;;;;;2.38;0.68;;;-0.40;99.90;;;;;;5044771;28;20205;-86
2022/01/27 07:19:10;;;;;;;0.40;0.30;;;-0.30;99.90;;;;;;5030304;28;20208;-89
2022/01/27 07:21:37;;;;;;;0.60;0.50;;;-0.40;99.90;;;;;;5030426;28;20205;-89
2022/01/27 07:24:07;;;;;;;0.30;0.20;;;-0.40;99.90;;;;;;5034029;28;20554;-88
2022/01/27 07:26:36;;;;;;;0.50;0.50;;;-0.40;99.90;;;;;;5039630;28;20205;-88
2022/01/27 07:29:04;;;;;;;0.40;0.35;;;-0.40;99.90;;;;;;5047176;28;20211;-91
2022/01/27 07:31:31;;;;;;;0.73;0.55;;;-0.40;99.90;;;;;;5038568;28;20194;-91
2022/01/27 07:33:58;;;;;;;0.30;0.20;;;-0.30;99.90;;;;;;5045605;28;20209;-88
2022/01/27 07:36:25;;;;;;;0.30;0.10;;;-0.30;99.90;;;;;;5039181;28;20200;-90
2022/01/27 07:38:52;;;;;;;1.85;0.50;;;-0.30;99.90;;;;;;5045283;28;20190;-88
2022/01/27 07:41:20;;;;;;;0.30;0.20;;;-0.20;99.90;;;;;;5053239;28;20204;-89
2022/01/27 07:43:49;;;;;;;1.85;1.15;;;-0.20;99.90;;;;;;5053196;28;20196;-88
2022/01/27 07:46:16;;;;;;;0.40;0.30;;;-0.10;99.90;;;;;;5052971;28;20278;-90
2022/01/27 07:48:43;;;;;;;0.40;0.30;;;-0.10;99.90;;;;;;5048120;28;20282;-91
2022/01/27 07:51:11;;;;;;;0.30;0.20;;;-0.10;99.90;;;;;;5036094;28;20663;-88
2022/01/27 07:53:40;;;;;;;1.05;0.80;;;-0.10;99.90;;;;;;5049562;28;20202;-88
2022/01/27 07:56:07;;;;;;;1.80;1.30;;;-0.10;99.90;;;;;;5044384;28;20275;-88
2022/01/27 07:58:38;;;;;;;0.30;0.20;;;0.00;99.90;;;;;;5035173;28;20256;-88
2022/01/27 08:01:09;;;;;;;0.73;0.73;;;0.00;99.90;;;;;;5050153;28;20201;-89
2022/01/27 08:03:36;;;;;;;1.45;1.35;;;0.00;99.90;;;;;;5072087;28;20197;-87
2022/01/27 08:06:04;;;;;;;1.45;1.35;;;0.00;99.90;;;;;;5060536;28;20258;-90
2022/01/27 08:08:31;;;;;;;0.95;0.93;;;0.10;99.90;;;;;;5065883;28;20652;-88
2022/01/27 08:10:58;;;;;;;0.30;0.20;;;0.20;99.90;;;;;;5036582;28;20210;-87
2022/01/27 08:13:26;;;;;;;0.40;0.30;;;0.20;99.90;;;;;;5033950;28;20212;-87
2022/01/27 08:15:53;;;;;;;0.30;0.20;;;0.30;99.90;;;;;;5048431;28;21013;-88
2022/01/27 08:18:21;;;;;;;0.30;0.10;;;0.40;99.90;;;;;;5037882;28;20620;-87
2022/01/27 08:20:49;;;;;;;0.30;0.10;;;0.50;99.90;;;;;;5045553;28;20194;-88
2022/01/27 08:23:16;;;;;;;0.30;0.20;;;0.60;99.90;;;;;;5050055;28;20208;-89
2022/01/27 08:25:48;;;;;;;0.52;0.52;;;0.60;99.90;;;;;;5044136;28;20201;-88
2022/01/27 08:28:22;;;;;;;2.05;0.43;;;0.60;99.90;;;;;;5037052;28;20223;-88
2022/01/27 08:30:52;;;;;;;0.73;0.73;;;0.60;99.90;;;;;;5045738;28;20213;-89
2022/01/27 08:33:20;;;;;;;1.00;1.00;;;0.70;99.90;;;;;;5050907;28;20215;-88
2022/01/27 08:35:48;;;;;;;0.68;0.45;;;0.70;99.90;;;;;;5052645;28;20296;-88
2022/01/27 08:38:15;;;;;;;0.68;0.35;;;0.70;99.90;;;;;;5061953;28;20220;-91
2022/01/27 08:40:42;;;;;;;0.30;0.17;;;0.90;99.90;;;;;;5041283;28;20201;-90
2022/01/27 08:43:09;;;;;;;0.30;0.10;;;1.00;99.90;;;;;;5036662;28;20203;-89
2022/01/27 08:45:38;;;;;;;0.30;0.20;;;1.10;99.90;;;;;;5050681;28;20200;-87
2022/01/27 08:48:06;;;;;;;0.38;0.25;;;1.20;99.90;;;;;;5065551;28;20707;-88
2022/01/27 08:50:35;;;;;;;0.30;0.10;;;1.20;99.90;;;;;;5068205;28;20196;-89
2022/01/27 08:53:02;;;;;;;0.30;0.20;;;1.20;99.90;;;;;;5048197;28;20247;-88
2022/01/27 08:55:30;;;;;;;0.30;0.20;;;1.20;99.90;;;;;;5055391;28;20576;-89
2022/01/27 08:57:57;;;;;;;0.50;0.30;;;1.20;99.90;;;;;;5051732;28;20197;-88
2022/01/27 09:00:24;;;;;;;0.30;0.10;;;1.30;99.90;;;;;;5033670;28;20558;-88
2022/01/27 09:02:51;;;;;;;0.30;0.20;;;1.30;99.90;;;;;;5049670;28;20196;-90
2022/01/27 09:05:18;;;;;;;0.40;0.30;;;1.40;99.90;;;;;;5047924;28;20280;-86
2022/01/27 09:07:46;;;;;;;0.30;0.15;;;1.40;99.90;;;;;;5033892;28;20233;-87
2022/01/27 09:10:15;;;;;;;1.10;1.10;;;1.50;99.90;;;;;;5049365;28;20258;-89
2022/01/27 09:12:42;;;;;;;1.60;1.50;;;1.50;99.90;;;;;;5042889;28;20515;-88
2022/01/27 09:15:10;;;;;;;0.30;0.10;;;1.60;99.90;;;;;;5047828;28;20660;-88
2022/01/27 09:17:40;;;;;;;0.30;0.10;;;1.70;99.90;;;;;;5048615;28;20221;-88
2022/01/27 09:20:09;;;;;;;0.30;0.10;;;1.80;99.90;;;;;;5042055;28;20317;-89
2022/01/27 09:22:37;;;;;;;0.30;0.20;;;1.90;99.90;;;;;;5052942;28;20448;-88
2022/01/27 09:25:13;;;;;;;0.40;0.30;;;1.90;99.90;;;;;;5061398;28;20471;-87
2022/01/27 09:27:42;;;;;;;0.30;0.10;;;2.10;99.90;;;;;;5050447;28;20480;-89
2022/01/27 09:30:12;;;;;;;0.50;0.50;;;2.00;99.90;;;;;;5054294;28;20194;-90
2022/01/27 09:32:40;;;;;;;0.67;0.37;;;2.10;99.90;;;;;;5059110;28;20952;-90
2022/01/27 09:35:07;;;;;;;10.27;1.57;;;2.20;99.90;;;;;;5051887;28;20439;-90
2022/01/27 09:37:34;;;;;;;0.30;0.20;;;2.30;99.90;;;;;;5066797;28;20480;-89
2022/01/27 09:40:01;;;;;;;0.30;0.10;;;2.40;99.90;;;;;;5057745;28;20510;-89
2022/01/27 09:42:33;;;;;;;0.30;0.10;;;2.40;99.90;;;;;;5059251;28;20464;-89
2022/01/27 09:45:04;;;;;;;0.30;0.20;;;2.40;99.90;;;;;;5054374;28;20809;-89
2022/01/27 09:47:34;;;;;;;0.30;0.10;;;2.50;99.90;;;;;;5059548;28;20566;-89
2022/01/27 09:50:18;;;;;;;0.30;0.20;;;2.50;99.90;;;;;;5056715;28;20466;-91
2022/01/27 09:52:47;;;;;;;0.30;0.10;;;2.60;99.90;;;;;;5052132;28;20452;-91
2022/01/27 09:55:15;;;;;;;0.30;0.10;;;2.70;99.90;;;;;;5056714;28;20436;-92
2022/01/27 09:57:45;;;;;;;0.30;0.20;;;2.70;99.90;;;;;;5050919;28;20460;-91
2022/01/27 10:00:14;;;;;;;0.30;0.20;;;2.90;99.90;;;;;;5043955;28;20918;-91
2022/01/27 10:03:01;;;;;;;0.60;0.53;;;3.00;99.90;;;;;;5057620;28;21151;-89
2022/01/27 10:05:28;;;;;;;0.50;0.50;;;3.10;99.90;;;;;;5053743;28;20536;-86
2022/01/27 10:08:03;;;;;;;0.30;0.10;;;3.10;99.90;;;;;;5053754;28;20488;-90
2022/01/27 10:10:36;;;;;;;0.30;0.20;;;3.10;99.90;;;;;;5039751;28;20452;-89
2022/01/27 10:13:07;;;;;;;0.30;0.10;;;3.00;99.90;;;;;;5051824;28;20457;-89
2022/01/27 10:15:38;;;;;;;0.30;0.20;;;3.10;99.90;;;;;;5054614;28;20465;-90
2022/01/27 10:18:09;;;;;;;0.30;0.10;;;3.20;99.90;;;;;;5044989;28;20453;-86
2022/01/27 10:20:37;;;;;;;0.40;0.30;;;3.20;99.90;;;;;;5047233;28;20453;-87
2022/01/27 10:23:16;;;;;;;1.17;0.93;;;3.40;99.90;;;;;;5050610;28;20437;-88
2022/01/27 10:25:51;;;;;;;0.33;0.30;;;3.30;99.90;;;;;;5040907;28;20815;-88
2022/01/27 10:28:29;;;;;;;0.97;0.67;;;3.10;99.90;;;;;;5042926;28;20487;-84
2022/01/27 10:31:01;;;;;;;0.40;0.30;;;3.10;99.90;;;;;;5038060;28;20445;-85
2022/01/27 10:33:28;;;;;;;0.30;0.10;;;3.20;99.90;;;;;;5051388;28;20496;-84
2022/01/27 10:35:55;;;;;;;0.30;0.10;;;3.20;99.90;;;;;;5057188;28;20942;-85
2022/01/27 10:38:22;;;;;;;0.90;0.83;;;3.40;99.90;;;;;;5051228;28;20455;-85
2022/01/27 10:40:49;;;;;;;0.30;0.10;;;3.40;99.90;;;;;;5045948;28;20489;-84
2022/01/27 10:43:19;;;;;;;0.30;0.20;;;3.40;99.90;;;;;;5054984;28;20976;-85
2022/01/27 10:46:06;;;;;;;0.30;0.10;;;3.30;99.90;;;;;;5043607;28;20486;-84
2022/01/27 10:48:36;;;;;;;0.30;0.10;;;3.40;99.90;;;;;;5041269;28;20878;-85
2022/01/27 10:51:08;;;;;;;0.30;0.20;;;3.40;99.90;;;;;;5044763;28;20469;-83
2022/01/27 10:53:57;;;;;;;1.13;1.13;;;3.50;99.90;;;;;;5039738;28;20544;-85
2022/01/27 10:56:27;;;;;;;0.83;0.73;;;3.50;99.90;;;;;;5038644;28;20452;-84
2022/01/27 10:58:55;;;;;;;0.30;0.10;;;3.50;99.90;;;;;;5038035;28;20453;-83
2022/01/27 11:01:26;;;;;;;0.30;0.10;;;3.50;99.90;;;;;;5049218;28;20789;-85
2022/01/27 11:03:54;;;;;;;0.30;0.20;;;3.60;99.90;;;;;;5051415;28;20525;-83
2022/01/27 11:06:23;;;;;;;1.80;1.40;;;3.80;99.90;;;;;;5049611;28;20457;-85
2022/01/27 11:08:54;;;;;;;0.30;0.20;;;3.80;99.90;;;;;;5047366;28;20769;-85
2022/01/27 11:11:23;;;;;;;0.60;0.30;;;3.80;99.90;;;;;;5052180;28;20483;-85
2022/01/27 11:13:50;;;;;;;0.30;0.20;;;3.80;99.90;;;;;;5049777;28;20534;-84
2022/01/27 11:16:22;;;;;;;0.40;0.33;;;3.90;99.90;;;;;;5048485;28;20477;-86
2022/01/27 11:18:51;;;;;;;2.20;0.73;;;4.00;99.90;;;;;;5055315;28;20452;-84
2022/01/27 11:21:31;;;;;;;0.30;0.10;;;3.90;99.90;;;;;;5049703;28;20457;-84
2022/01/27 11:24:04;;;;;;;0.30;0.10;;;3.90;99.90;;;;;;5048035;28;20468;-83
2022/01/27 11:26:33;;;;;;;2.70;1.03;;;3.90;99.90;;;;;;5029753;28;20452;-86
2022/01/27 11:29:00;;;;;;;0.30;0.10;;;4.00;99.90;;;;;;5040700;28;20574;-85
2022/01/27 11:31:40;;;;;;;0.30;0.10;;;4.00;99.90;;;;;;5063681;28;21024;-84
2022/01/27 11:34:10;;;;;;;0.43;0.43;;;4.10;99.90;;;;;;5062647;28;20447;-87
2022/01/27 11:36:39;;;;;;;0.30;0.20;;;4.10;99.90;;;;;;5048791;28;20457;-85
2022/01/27 11:39:12;;;;;;;0.30;0.20;;;4.10;99.90;;;;;;5051475;28;20469;-84
2022/01/27 11:41:43;;;;;;;0.30;0.20;;;4.30;99.90;;;;;;5046769;28;20490;-84
2022/01/27 11:44:24;;;;;;;0.77;0.57;;;4.30;99.90;;;;;;5036910;28;20952;-83
2022/01/27 11:47:18;;;;;;;0.30;0.10;;;4.40;99.90;;;;;;5055091;28;20453;-87
2022/01/27 11:50:07;;;;;;;0.30;0.10;;;4.50;99.90;;;;;;5041323;28;20848;-85
2022/01/27 11:52:35;;;;;;;2.27;2.17;;;4.40;99.90;;;;;;5037919;28;20443;-84
2022/01/27 11:55:36;;;;;;;0.80;0.63;;;4.30;99.90;;;;;;5033963;28;20495;-85
2022/01/27 11:58:14;;;;;;;0.30;0.20;;;4.30;99.90;;;;;;5030295;28;20465;-85
2022/01/27 12:01:01;;;;;;;0.40;0.20;;;4.40;99.90;;;;;;5045257;28;21030;-84
2022/01/27 12:03:28;;;;;;;0.50;0.50;;;4.30;99.90;;;;;;5036100;28;20882;-82
2022/01/27 12:06:20;;;;;;;0.30;0.30;;;4.20;99.90;;;;;;5040090;28;20448;-85
2022/01/27 12:08:48;;;;;;;0.40;0.30;;;4.30;99.90;;;;;;5031523;28;20513;-84
2022/01/27 12:11:48;;;;;;;0.70;0.60;;;4.40;99.90;;;;;;5044210;28;20457;-83
2022/01/27 12:14:18;;;;;;;0.40;0.20;;;4.40;99.90;;;;;;5032456;28;20453;-86
2022/01/27 12:16:56;;;;;;;0.30;0.20;;;4.40;99.90;;;;;;5037095;28;20795;-83
2022/01/27 12:19:23;;;;;;;0.40;0.20;;;4.30;99.90;;;;;;5039516;28;20511;-86
2022/01/27 12:22:04;;;;;;;0.97;0.40;;;4.20;99.90;;;;;;5043620;28;20448;-83
2022/01/27 12:24:32;;;;;;;0.30;0.20;;;4.20;99.90;;;;;;5034627;28;20837;-85
2022/01/27 12:27:01;;;;;;;0.30;0.20;;;4.20;99.90;;;;;;5051380;28;21133;-85
2022/01/27 12:29:34;;;;;;;0.30;0.10;;;4.30;99.90;;;;;;5043280;28;20815;-83
2022/01/27 12:32:02;;;;;;;4.00;0.40;;;4.50;99.90;;;;;;5039534;28;20479;-84
2022/01/27 12:34:30;;;;;;;0.30;0.10;;;4.60;99.90;;;;;;5048102;28;20495;-84
2022/01/27 12:37:05;;;;;;;0.50;0.50;;;4.70;99.90;;;;;;5046370;28;20461;-84
2022/01/27 12:39:35;;;;;;;0.30;0.10;;;4.60;99.90;;;;;;5052519;28;20486;-84
2022/01/27 12:42:05;;;;;;;0.50;0.50;;;4.70;99.90;;;;;;5051722;28;20502;-82
2022/01/27 12:44:33;;;;;;;0.40;0.30;;;4.90;99.90;;;;;;5048101;28;20525;-84
2022/01/27 12:47:09;;;;;;;0.30;0.10;;;4.90;99.90;;;;;;5049354;28;20499;-85
2022/01/27 12:49:43;;;;;;;2.00;0.73;;;5.00;99.90;;;;;;5047314;28;20562;-84
2022/01/27 12:52:15;;;;;;;0.30;0.20;;;5.00;99.90;;;;;;5043009;28;20948;-84
2022/01/27 12:54:42;;;;;;;0.50;0.40;;;5.10;99.90;;;;;;5034056;28;20461;-85
2022/01/27 12:57:10;;;;;;;0.40;0.30;;;5.10;99.90;;;;;;5043897;28;20994;-83
2022/01/27 12:59:39;;;;;;;0.30;0.20;;;5.20;99.90;;;;;;5040575;28;20468;-84
2022/01/27 13:02:08;;;;;;;0.40;0.30;;;5.10;99.90;;;;;;5043076;28;20444;-85
2022/01/27 13:04:36;;;;;;;0.40;0.20;;;5.20;99.90;;;;;;5043572;28;20445;-85
2022/01/27 13:07:04;;;;;;;0.30;0.20;;;5.20;99.90;;;;;;5044420;28;20463;-84
2022/01/27 13:09:34;;;;;;;0.30;0.20;;;5.30;99.90;;;;;;5050404;28;20534;-85
2022/01/27 13:12:15;;;;;;;4.37;1.07;;;5.30;99.90;;;;;;5039499;28;20470;-84
2022/01/27 13:15:01;;;;;;;0.60;0.60;;;5.30;99.90;;;;;;5044038;28;20457;-84
2022/01/27 13:17:35;;;;;;;1.83;1.53;;;5.40;99.90;;;;;;5043285;28;20509;-84
2022/01/27 13:20:16;;;;;;;0.43;0.43;;;5.30;99.90;;;;;;5043273;28;20473;-84
2022/01/27 13:22:53;;;;;;;0.30;0.10;;;5.40;99.90;;;;;;5061347;28;20462;-84
2022/01/27 13:25:23;;;;;;;0.30;0.10;;;5.40;99.90;;;;;;5051121;28;20450;-87
2022/01/27 13:28:04;;;;;;;0.30;0.10;;;5.40;99.90;;;;;;5041595;28;20935;-86
2022/01/27 13:30:32;;;;;;;0.30;0.30;;;5.50;99.90;;;;;;5035415;28;20481;-83
2022/01/27 13:33:00;;;;;;;0.30;0.20;;;5.40;99.90;;;;;;5047204;28;21114;-85